sensor_id;sensor_type;location;lat;lon;timestamp;pressure;altitude;pressure_sealevel;temperature;humidity
50650;BME280;36621;60.058;30.346;2023-04-26T02:31:22;100185.66;;;13.67;37.51
50650;BME280;36621;60.058;30.346;2023-04-26T02:38:54;100208.13;;;13.69;38.76
50650;BME280;36621;60.058;30.346;2023-04-26T02:46:27;100206.19;;;13.56;39.02
50650;BME280;36621;60.058;30.346;2023-04-26T02:53:59;100199.50;;;13.48;38.69
50650;BME280;36621;60.058;30.346;2023-04-26T03:01:34;100208.63;;;13.71;38.21
50650;BME280;36621;60.058;30.346;2023-04-26T03:09:06;100211.38;;;13.85;37.10
50650;BME280;36621;60.058;30.346;2023-04-26T03:16:42;100195.28;;;13.93;38.10
50650;BME280;36621;60.058;30.346;2023-04-26T03:24:15;100197.25;;;14.15;37.66
50650;BME280;36621;60.058;30.346;2023-04-26T03:31:47;100196.63;;;15.49;35.89
50650;BME280;36621;60.058;30.346;2023-04-26T03:39:19;100184.09;;;17.86;32.01
50650;BME280;36621;60.058;30.346;2023-04-26T03:46:56;100188.50;;;18.84;30.08
50650;BME280;36621;60.058;30.346;2023-04-26T03:54:28;100175.75;;;18.37;31.00
50650;BME280;36621;60.058;30.346;2023-04-26T04:02:05;100172.88;;;18.67;29.98
50650;BME280;36621;60.058;30.346;2023-04-26T04:09:48;100149.59;;;19.26;29.16
50650;BME280;36621;60.058;30.346;2023-04-26T04:17:25;100155.22;;;19.91;27.87
50650;BME280;36621;60.058;30.346;2023-04-26T04:24:58;100133.34;;;20.87;26.01
50650;BME280;36621;60.058;30.346;2023-04-26T04:32:41;100165.66;;;23.19;24.64
50650;BME280;36621;60.058;30.346;2023-04-26T04:40:25;100177.28;;;23.79;23.01
50650;BME280;36621;60.058;30.346;2023-04-26T04:48:06;100159.47;;;24.48;22.03
50650;BME280;36621;60.058;30.346;2023-04-26T04:55:45;100131.28;;;24.98;21.47
50650;BME280;36621;60.058;30.346;2023-04-26T05:03:30;100128.44;;;26.09;20.38
50650;BME280;36621;60.058;30.346;2023-04-26T05:11:10;100166.56;;;26.49;19.82
50650;BME280;36621;60.058;30.346;2023-04-26T15:21:15;100094.13;;;21.56;23.70
50650;BME280;36621;60.058;30.346;2023-04-26T15:28:47;100083.47;;;21.07;24.52
50650;BME280;36621;60.058;30.346;2023-04-26T15:36:21;100088.28;;;21.10;23.84
50650;BME280;36621;60.058;30.346;2023-04-26T15:43:53;100075.41;;;20.86;24.46
50650;BME280;36621;60.058;30.346;2023-04-26T15:51:26;100100.56;;;21.09;25.33
50650;BME280;36621;60.058;30.346;2023-04-26T15:58:58;100108.19;;;21.12;25.76
50650;BME280;36621;60.058;30.346;2023-04-26T16:06:31;100119.19;;;21.08;25.99
50650;BME280;36621;60.058;30.346;2023-04-26T16:14:03;100129.13;;;20.93;26.77
50650;BME280;36621;60.058;30.346;2023-04-26T16:21:36;100132.13;;;20.72;28.23
50650;BME280;36621;60.058;30.346;2023-04-26T16:29:09;100116.03;;;20.34;29.44
50650;BME280;36621;60.058;30.346;2023-04-26T16:36:42;100124.44;;;20.09;30.47
50650;BME280;36621;60.058;30.346;2023-04-26T16:44:14;100128.91;;;19.73;31.92
50650;BME280;36621;60.058;30.346;2023-04-26T16:51:47;100133.44;;;19.53;32.28
50650;BME280;36621;60.058;30.346;2023-04-26T16:59:23;100159.88;;;19.50;33.43
50650;BME280;36621;60.058;30.346;2023-04-26T17:06:56;100161.47;;;19.26;34.05
50650;BME280;36621;60.058;30.346;2023-04-26T17:14:28;100138.63;;;18.92;34.03
50650;BME280;36621;60.058;30.346;2023-04-26T17:22:01;100143.97;;;18.64;34.32
50650;BME280;36621;60.058;30.346;2023-04-26T17:29:33;100144.69;;;18.40;34.47
50650;BME280;36621;60.058;30.346;2023-04-26T17:37:20;100070.16;;;17.98;34.08
50650;BME280;36621;60.058;30.346;2023-04-26T17:45:21;100170.66;;;18.27;35.21
50650;BME280;36621;60.058;30.346;2023-04-26T17:52:54;100173.38;;;18.14;35.60
50650;BME280;36621;60.058;30.346;2023-04-26T18:00:26;100172.84;;;18.00;35.86
50650;BME280;36621;60.058;30.346;2023-04-26T18:07:59;100177.44;;;17.87;35.98
50650;BME280;36621;60.058;30.346;2023-04-26T18:15:31;100162.94;;;17.69;36.45
50650;BME280;36621;60.058;30.346;2023-04-26T18:23:03;100185.56;;;17.62;36.44
50650;BME280;36621;60.058;30.346;2023-04-26T18:30:35;100175.72;;;17.52;36.73
50650;BME280;36621;60.058;30.346;2023-04-26T18:38:08;100034.69;;;16.56;36.10
50650;BME280;36621;60.058;30.346;2023-04-26T18:45:40;100185.50;;;17.41;37.30
50650;BME280;36621;60.058;30.346;2023-04-26T18:53:13;100184.25;;;17.30;37.37
50650;BME280;36621;60.058;30.346;2023-04-26T19:00:51;100174.38;;;17.20;37.73
50650;BME280;36621;60.058;30.346;2023-04-26T19:08:25;100099.19;;;16.46;37.89
50650;BME280;36621;60.058;30.346;2023-04-26T19:15:57;100188.94;;;16.73;37.29
50650;BME280;36621;60.058;30.346;2023-04-26T19:23:29;100151.06;;;16.44;36.84
50650;BME280;36621;60.058;30.346;2023-04-26T19:31:02;100186.06;;;16.43;35.10
50650;BME280;36621;60.058;30.346;2023-04-26T19:38:34;100178.13;;;16.24;34.96
50650;BME280;36621;60.058;30.346;2023-04-26T19:46:10;100153.19;;;16.03;34.44
50650;BME280;36621;60.058;30.346;2023-04-26T19:53:43;100186.06;;;16.08;34.44
50650;BME280;36621;60.058;30.346;2023-04-26T20:01:15;100171.97;;;15.84;35.18
50650;BME280;36621;60.058;30.346;2023-04-26T20:08:48;100171.13;;;15.74;34.70
50650;BME280;36621;60.058;30.346;2023-04-26T20:16:20;100130.22;;;15.24;35.55
50650;BME280;36621;60.058;30.346;2023-04-26T20:23:53;100157.56;;;15.29;34.94
50650;BME280;36621;60.058;30.346;2023-04-26T20:31:25;100181.34;;;15.34;34.96
50650;BME280;36621;60.058;30.346;2023-04-26T20:38:58;100175.81;;;15.25;35.19
50650;BME280;36621;60.058;30.346;2023-04-26T20:46:30;100194.34;;;15.10;34.81
50650;BME280;36621;60.058;30.346;2023-04-26T20:54:03;100185.88;;;14.89;34.41
50650;BME280;36621;60.058;30.346;2023-04-26T21:01:35;100184.31;;;14.74;35.06
50650;BME280;36621;60.058;30.346;2023-04-26T21:09:07;100179.94;;;14.51;35.58
50650;BME280;36621;60.058;30.346;2023-04-26T21:16:40;100178.97;;;14.33;35.47
50650;BME280;36621;60.058;30.346;2023-04-26T21:24:12;100182.03;;;14.31;35.47
50650;BME280;36621;60.058;30.346;2023-04-26T21:31:44;100192.03;;;14.27;35.56
50650;BME280;36621;60.058;30.346;2023-04-26T21:39:17;100191.66;;;14.20;35.90
50650;BME280;36621;60.058;30.346;2023-04-26T21:46:49;100171.81;;;13.86;36.37
50650;BME280;36621;60.058;30.346;2023-04-26T21:54:21;100191.31;;;13.99;36.02
50650;BME280;36621;60.058;30.346;2023-04-26T22:01:53;100181.19;;;13.85;36.52
50650;BME280;36621;60.058;30.346;2023-04-26T22:09:26;100178.75;;;13.70;37.16
50650;BME280;36621;60.058;30.346;2023-04-26T22:16:58;100183.53;;;13.64;37.11
50650;BME280;36621;60.058;30.346;2023-04-26T22:24:30;100175.94;;;13.61;37.79
50650;BME280;36621;60.058;30.346;2023-04-26T22:32:02;100191.97;;;13.54;38.21
50650;BME280;36621;60.058;30.346;2023-04-26T22:39:35;100193.00;;;13.58;37.67
50650;BME280;36621;60.058;30.346;2023-04-26T22:47:07;100185.78;;;13.48;37.90
50650;BME280;36621;60.058;30.346;2023-04-26T22:54:40;100182.84;;;13.45;38.47
50650;BME280;36621;60.058;30.346;2023-04-26T23:02:12;100176.63;;;13.25;39.14
50650;BME280;36621;60.058;30.346;2023-04-26T23:09:46;100189.72;;;13.28;38.93
50650;BME280;36621;60.058;30.346;2023-04-26T23:17:18;100186.38;;;13.17;39.35
50650;BME280;36621;60.058;30.346;2023-04-26T23:24:51;100187.47;;;13.16;39.49
50650;BME280;36621;60.058;30.346;2023-04-26T23:32:23;100156.78;;;12.86;39.70
50650;BME280;36621;60.058;30.346;2023-04-26T23:39:55;100183.59;;;13.03;39.53
50650;BME280;36621;60.058;30.346;2023-04-26T23:47:27;100195.19;;;13.00;39.62
50650;BME280;36621;60.058;30.346;2023-04-26T23:55:01;100187.81;;;12.82;39.88
